createdAt,value
2022-11-27T00:00:15.752Z,58.80
2022-11-27T00:02:42.384Z,58.60
2022-11-27T00:05:08.897Z,58.50
2022-11-27T00:07:35.400Z,58.60
2022-11-27T00:10:01.914Z,58.50
2022-11-27T00:12:28.400Z,58.70
2022-11-27T00:14:55.775Z,58.30
2022-11-27T00:17:22.312Z,58.20
2022-11-27T00:19:48.770Z,58.40
2022-11-27T00:22:15.243Z,58.40
2022-11-27T00:24:41.832Z,58.10
2022-11-27T00:27:08.490Z,58.00
2022-11-27T00:29:34.944Z,58.10
2022-11-27T00:32:01.405Z,58.10
2022-11-27T00:34:27.871Z,58.20
2022-11-27T00:36:54.327Z,58.10
2022-11-27T00:39:20.790Z,58.30
2022-11-27T00:41:52.481Z,58.20
2022-11-27T00:44:18.934Z,58.10
2022-11-27T00:46:45.543Z,58.20
2022-11-27T00:49:12.130Z,58.10
2022-11-27T00:51:38.607Z,58.30
2022-11-27T00:54:05.091Z,58.20
2022-11-27T00:56:31.590Z,58.00
2022-11-27T00:58:58.044Z,58.00
2022-11-27T01:01:24.613Z,58.10
2022-11-27T01:03:51.108Z,57.90
2022-11-27T01:06:17.603Z,57.90
2022-11-27T01:08:44.070Z,57.90
2022-11-27T01:11:10.577Z,57.80
2022-11-27T01:13:37.027Z,57.80
2022-11-27T01:16:03.563Z,57.70
2022-11-27T01:18:30.120Z,58.00
2022-11-27T01:20:56.575Z,58.00
2022-11-27T01:23:23.028Z,57.80
2022-11-27T01:25:49.482Z,57.60
2022-11-27T01:28:15.950Z,57.80
2022-11-27T01:30:42.401Z,57.90
2022-11-27T01:33:08.866Z,57.80
2022-11-27T01:35:35.332Z,57.60
2022-11-27T01:38:04.527Z,57.60
2022-11-27T01:40:30.970Z,57.60
2022-11-27T01:42:57.454Z,57.50
2022-11-27T01:45:23.921Z,57.40
2022-11-27T01:47:50.430Z,57.30
2022-11-27T01:50:16.893Z,57.20
2022-11-27T01:52:43.380Z,57.20
2022-11-27T01:55:09.832Z,57.20
2022-11-27T01:57:36.320Z,57.30
2022-11-27T02:00:02.785Z,57.30
2022-11-27T02:02:29.312Z,57.20
2022-11-27T02:04:55.788Z,57.20
2022-11-27T02:07:22.336Z,57.00
2022-11-27T02:09:48.824Z,57.00
2022-11-27T02:12:15.302Z,57.00
2022-11-27T02:14:42.037Z,57.10
2022-11-27T02:17:08.765Z,56.90
2022-11-27T02:19:35.235Z,57.20
2022-11-27T02:22:01.705Z,56.90
2022-11-27T02:24:28.172Z,56.80
2022-11-27T02:26:54.646Z,57.00
2022-11-27T02:29:21.115Z,57.00
2022-11-27T02:31:47.677Z,56.80
2022-11-27T02:34:14.230Z,56.70
2022-11-27T02:36:40.703Z,56.90
2022-11-27T02:39:07.172Z,56.70
2022-11-27T02:41:33.635Z,56.60
2022-11-27T02:44:00.107Z,56.70
2022-11-27T02:46:26.623Z,56.70
2022-11-27T02:48:53.225Z,56.70
2022-11-27T02:51:19.670Z,56.80
2022-11-27T02:53:46.163Z,56.60
2022-11-27T02:56:12.627Z,56.80
2022-11-27T02:58:39.104Z,56.50
2022-11-27T03:01:05.570Z,56.40
2022-11-27T03:03:32.038Z,56.40
2022-11-27T03:05:58.488Z,56.30
2022-11-27T03:08:24.956Z,56.40
2022-11-27T03:10:51.419Z,56.30
2022-11-27T03:13:17.902Z,56.50
2022-11-27T03:15:44.402Z,56.20
2022-11-27T03:18:10.934Z,56.50
2022-11-27T03:20:37.398Z,56.70
2022-11-27T03:23:03.853Z,56.20
2022-11-27T03:25:30.309Z,56.30
2022-11-27T03:27:56.767Z,56.40
2022-11-27T03:30:23.234Z,56.30
2022-11-27T03:32:49.699Z,56.20
2022-11-27T03:35:16.147Z,55.90
2022-11-27T03:37:42.608Z,56.00
2022-11-27T03:40:09.074Z,55.70
2022-11-27T03:42:35.542Z,56.10
2022-11-27T03:45:01.995Z,55.60
2022-11-27T03:47:28.521Z,56.10
2022-11-27T03:49:55.030Z,55.60
2022-11-27T03:52:21.494Z,56.10
2022-11-27T03:54:47.986Z,56.00
2022-11-27T03:57:14.440Z,56.00
2022-11-27T03:59:40.913Z,55.70
2022-11-27T04:02:07.384Z,55.50
2022-11-27T04:04:33.926Z,55.60
2022-11-27T04:07:00.379Z,55.60
2022-11-27T04:09:26.867Z,55.70
2022-11-27T04:11:53.322Z,55.40
2022-11-27T04:14:19.809Z,55.70
2022-11-27T04:16:46.255Z,56.30
2022-11-27T04:19:12.738Z,55.50
2022-11-27T04:21:39.201Z,55.40
2022-11-27T04:24:05.661Z,55.50
2022-11-27T04:26:32.135Z,55.50
2022-11-27T04:28:58.627Z,55.40
2022-11-27T04:31:25.168Z,55.30
2022-11-27T04:33:51.667Z,55.50
2022-11-27T04:36:18.135Z,55.30
2022-11-27T04:38:44.598Z,55.50
2022-11-27T04:41:11.065Z,55.30
2022-11-27T04:43:37.519Z,55.30
2022-11-27T04:46:03.983Z,55.20
2022-11-27T04:48:30.434Z,55.00
2022-11-27T04:50:56.926Z,54.90
2022-11-27T04:53:23.391Z,55.10
2022-11-27T04:55:49.887Z,55.10
2022-11-27T04:58:16.360Z,54.70
2022-11-27T05:00:42.880Z,54.80
2022-11-27T05:03:09.447Z,54.70
2022-11-27T05:05:35.951Z,54.60
2022-11-27T05:08:02.459Z,54.90
2022-11-27T05:10:28.966Z,54.60
2022-11-27T05:12:55.428Z,54.60
2022-11-27T05:15:21.904Z,54.60
2022-11-27T05:17:48.377Z,54.50
2022-11-27T05:20:14.861Z,54.40
2022-11-27T05:22:41.311Z,54.40
2022-11-27T05:25:07.785Z,54.90
2022-11-27T05:27:34.240Z,54.40
2022-11-27T05:30:00.699Z,54.70
2022-11-27T05:32:27.146Z,54.40
2022-11-27T05:34:53.608Z,54.70
2022-11-27T05:37:20.248Z,54.80
2022-11-27T05:39:46.766Z,54.60
2022-11-27T05:42:13.249Z,54.60
2022-11-27T05:44:39.903Z,54.70
2022-11-27T05:47:06.648Z,54.50
2022-11-27T05:49:33.126Z,54.30
2022-11-27T05:51:59.590Z,54.20
2022-11-27T05:54:26.059Z,54.40
2022-11-27T05:56:52.523Z,54.60
2022-11-27T05:59:18.972Z,54.30
2022-11-27T06:01:45.488Z,54.30
2022-11-27T06:04:11.964Z,54.40
2022-11-27T06:06:38.452Z,54.20
2022-11-27T06:09:10.926Z,54.10
2022-11-27T06:11:38.835Z,53.90
2022-11-27T06:14:05.308Z,54.10
2022-11-27T06:16:31.844Z,53.90
2022-11-27T06:18:58.350Z,54.00
2022-11-27T06:21:24.831Z,54.00
2022-11-27T06:23:51.416Z,54.30
2022-11-27T06:26:17.915Z,54.00
2022-11-27T06:28:44.367Z,54.00
2022-11-27T06:31:16.022Z,54.10
2022-11-27T06:33:44.132Z,54.10
2022-11-27T06:36:10.624Z,54.00
2022-11-27T06:38:37.086Z,54.60
2022-11-27T06:41:03.573Z,54.30
2022-11-27T06:43:30.027Z,54.60
2022-11-27T06:45:56.570Z,54.70
2022-11-27T06:48:23.046Z,54.40
2022-11-27T06:50:49.504Z,54.40
2022-11-27T06:53:15.960Z,54.30
2022-11-27T06:55:42.430Z,54.30
2022-11-27T06:58:08.953Z,54.70
2022-11-27T07:00:35.475Z,54.20
2022-11-27T07:03:01.988Z,54.40
2022-11-27T07:05:28.438Z,54.40
2022-11-27T07:07:54.953Z,54.10
2022-11-27T07:10:21.497Z,53.80
2022-11-27T07:12:47.978Z,53.80
2022-11-27T07:15:14.440Z,54.10
2022-11-27T07:17:40.909Z,54.20
2022-11-27T07:20:07.352Z,54.20
2022-11-27T07:22:33.829Z,53.50
2022-11-27T07:25:00.298Z,53.20
2022-11-27T07:27:27.029Z,52.90
2022-11-27T07:29:53.544Z,52.70
2022-11-27T07:32:20.006Z,52.90
2022-11-27T07:34:46.464Z,52.90
2022-11-27T07:37:12.940Z,52.90
2022-11-27T07:40:01.351Z,53.00
2022-11-27T07:42:41.153Z,53.20
2022-11-27T07:45:07.636Z,52.90
2022-11-27T07:47:34.118Z,53.30
2022-11-27T07:50:00.624Z,53.40
2022-11-27T07:52:27.139Z,53.10
2022-11-27T07:54:53.586Z,53.40
2022-11-27T07:57:20.076Z,53.50
2022-11-27T07:59:47.641Z,53.70
2022-11-27T08:02:14.349Z,53.80
2022-11-27T08:04:41.095Z,53.70
2022-11-27T08:07:07.788Z,53.80
2022-11-27T08:09:34.246Z,54.10
2022-11-27T08:12:00.701Z,53.90
2022-11-27T08:14:27.166Z,54.20
2022-11-27T08:16:53.693Z,54.20
2022-11-27T08:19:20.187Z,54.30
2022-11-27T08:21:46.655Z,55.10
2022-11-27T08:24:13.148Z,54.30
2022-11-27T08:26:39.610Z,54.30
2022-11-27T08:29:06.108Z,54.60
2022-11-27T08:31:32.579Z,54.40
2022-11-27T08:33:59.087Z,54.40
2022-11-27T08:36:25.540Z,54.20
2022-11-27T08:38:52.023Z,54.40
2022-11-27T08:41:18.484Z,54.40
2022-11-27T08:43:44.999Z,54.40
2022-11-27T08:46:11.536Z,54.40
2022-11-27T08:48:38.059Z,54.20
2022-11-27T08:51:04.533Z,54.50
2022-11-27T08:53:31.024Z,54.50
2022-11-27T08:55:57.470Z,53.90
2022-11-27T08:58:23.957Z,54.10
2022-11-27T09:00:50.497Z,53.60
2022-11-27T09:03:16.976Z,53.90
2022-11-27T09:05:43.442Z,53.90
2022-11-27T09:08:09.914Z,53.50
2022-11-27T09:10:36.369Z,53.40
2022-11-27T09:13:02.855Z,53.40
2022-11-27T09:15:29.332Z,53.90
2022-11-27T09:17:55.804Z,53.50
2022-11-27T09:20:22.356Z,53.40
2022-11-27T09:22:48.845Z,53.50
2022-11-27T09:25:15.334Z,53.60
2022-11-27T09:27:41.801Z,53.90
2022-11-27T09:30:08.281Z,53.90
2022-11-27T09:32:34.754Z,53.80
2022-11-27T09:35:01.264Z,53.90
2022-11-27T09:37:27.742Z,54.10
2022-11-27T09:39:54.242Z,54.10
2022-11-27T09:42:20.709Z,54.20
2022-11-27T09:44:47.204Z,54.20
2022-11-27T09:47:13.648Z,54.30
2022-11-27T09:49:40.132Z,54.20
2022-11-27T09:52:06.597Z,54.20
2022-11-27T09:54:33.132Z,54.20
2022-11-27T09:56:59.582Z,54.30
2022-11-27T09:59:26.065Z,54.20
2022-11-27T10:01:52.620Z,54.30
2022-11-27T10:04:19.203Z,54.40
2022-11-27T10:06:45.669Z,54.50
2022-11-27T10:09:12.140Z,54.50
2022-11-27T10:11:38.592Z,54.50
2022-11-27T10:14:05.049Z,54.50
2022-11-27T10:16:31.602Z,54.60
2022-11-27T10:18:58.112Z,54.40
2022-11-27T10:21:24.587Z,54.40
2022-11-27T10:23:51.031Z,54.60
2022-11-27T10:26:17.505Z,54.60
2022-11-27T10:28:43.971Z,54.70
2022-11-27T10:31:10.464Z,54.50
2022-11-27T10:33:36.971Z,54.70
2022-11-27T10:36:03.424Z,54.60
2022-11-27T10:38:29.877Z,54.70
2022-11-27T10:40:56.363Z,54.70
2022-11-27T10:43:22.864Z,54.80
2022-11-27T10:45:49.379Z,54.70
2022-11-27T10:48:15.864Z,54.70
2022-11-27T10:50:42.337Z,54.40
2022-11-27T10:53:08.797Z,54.60
2022-11-27T10:55:35.261Z,54.30
2022-11-27T10:58:01.712Z,54.60
2022-11-27T11:00:28.168Z,54.60
2022-11-27T11:02:54.639Z,54.60
2022-11-27T11:08:07.570Z,54.50
2022-11-27T11:10:34.034Z,54.60
2022-11-27T11:13:00.498Z,54.60
2022-11-27T11:15:26.985Z,55.20
2022-11-27T11:17:53.440Z,54.40
2022-11-27T11:20:19.952Z,54.50
2022-11-27T11:22:46.409Z,54.40
2022-11-27T11:25:12.891Z,54.40
2022-11-27T11:27:39.371Z,54.50
2022-11-27T11:30:05.836Z,54.40
2022-11-27T11:32:32.300Z,54.50
2022-11-27T11:35:01.109Z,54.40
2022-11-27T11:37:27.964Z,54.30
2022-11-27T11:39:54.430Z,54.30
2022-11-27T11:42:20.896Z,54.30
2022-11-27T11:44:47.366Z,54.20
2022-11-27T11:47:13.837Z,54.10
2022-11-27T11:49:40.289Z,54.00
2022-11-27T11:52:06.763Z,54.20
2022-11-27T11:54:33.232Z,54.10
2022-11-27T11:56:59.680Z,54.00
2022-11-27T11:59:26.136Z,53.90
2022-11-27T12:01:52.651Z,54.00
2022-11-27T12:04:19.164Z,54.00
2022-11-27T12:06:45.685Z,54.00
2022-11-27T12:09:12.144Z,54.00
2022-11-27T12:11:38.606Z,54.00
2022-11-27T12:14:05.080Z,53.90
2022-11-27T12:16:31.549Z,54.00
2022-11-27T12:18:58.057Z,53.90
2022-11-27T12:21:24.514Z,53.90
2022-11-27T12:23:50.984Z,54.00
2022-11-27T12:26:17.441Z,54.20
2022-11-27T12:28:43.900Z,54.10
2022-11-27T12:31:10.419Z,54.10
2022-11-27T12:33:36.914Z,54.10
2022-11-27T12:36:03.365Z,53.90
2022-11-27T12:38:29.840Z,53.90
2022-11-27T12:40:56.275Z,53.90
2022-11-27T12:43:22.743Z,53.70
2022-11-27T12:45:49.250Z,53.90
2022-11-27T12:48:15.774Z,53.60
2022-11-27T12:50:42.227Z,53.60
2022-11-27T12:53:08.690Z,53.70
2022-11-27T12:55:35.149Z,53.60
2022-11-27T12:58:01.646Z,53.60
2022-11-27T13:00:28.110Z,53.80
2022-11-27T13:02:54.590Z,53.70
2022-11-27T13:05:21.114Z,53.40
2022-11-27T13:07:47.650Z,53.60
2022-11-27T13:10:14.143Z,53.60
2022-11-27T13:12:40.616Z,53.50
2022-11-27T13:15:07.068Z,53.70
2022-11-27T13:17:33.537Z,53.50
2022-11-27T13:20:00.007Z,53.30
2022-11-27T13:22:26.468Z,53.40
2022-11-27T13:24:52.936Z,53.40
2022-11-27T13:27:19.412Z,53.40
2022-11-27T13:29:45.904Z,53.50
2022-11-27T13:32:12.358Z,53.50
2022-11-27T13:34:39.026Z,53.40
2022-11-27T13:37:05.814Z,53.40
2022-11-27T13:39:32.273Z,53.40
2022-11-27T13:41:58.729Z,53.40
2022-11-27T13:44:25.215Z,53.40
2022-11-27T13:46:51.673Z,53.50
2022-11-27T13:49:18.129Z,53.40
2022-11-27T13:51:44.591Z,53.40
2022-11-27T13:54:11.048Z,53.40
2022-11-27T13:56:37.498Z,53.40
2022-11-27T13:59:03.964Z,53.40
2022-11-27T14:01:30.448Z,53.30
2022-11-27T14:03:56.942Z,53.30
2022-11-27T14:06:23.410Z,53.20
2022-11-27T14:08:49.877Z,53.30
2022-11-27T14:11:16.344Z,53.40
2022-11-27T14:13:42.809Z,53.30
2022-11-27T14:16:09.319Z,53.20
2022-11-27T14:18:35.805Z,53.40
2022-11-27T14:21:02.269Z,53.20
2022-11-27T14:23:28.749Z,53.30
2022-11-27T14:25:55.216Z,53.30
2022-11-27T14:28:21.720Z,53.10
2022-11-27T14:30:48.208Z,53.10
2022-11-27T14:33:14.669Z,53.40
2022-11-27T14:35:41.138Z,53.30
2022-11-27T14:38:07.588Z,53.30
2022-11-27T14:40:34.046Z,53.20
2022-11-27T14:43:00.520Z,53.00
2022-11-27T14:45:26.986Z,53.20
2022-11-27T14:47:53.445Z,53.20
2022-11-27T14:50:19.893Z,53.10
2022-11-27T14:52:46.339Z,53.20
2022-11-27T14:55:12.786Z,53.10
2022-11-27T14:57:39.256Z,53.20
2022-11-27T15:00:05.706Z,53.00
2022-11-27T15:02:32.289Z,52.90
2022-11-27T15:04:58.901Z,53.00
2022-11-27T15:07:25.465Z,53.00
2022-11-27T15:09:51.953Z,52.80
2022-11-27T15:12:18.435Z,53.00
2022-11-27T15:14:44.883Z,53.30
2022-11-27T15:17:11.352Z,53.30
2022-11-27T15:19:37.814Z,53.30
2022-11-27T15:22:04.277Z,52.90
2022-11-27T15:24:30.761Z,52.70
2022-11-27T15:26:57.223Z,52.80
2022-11-27T15:29:23.717Z,53.10
2022-11-27T15:31:50.374Z,53.10
2022-11-27T15:34:16.957Z,53.10
2022-11-27T15:36:43.442Z,53.20
2022-11-27T15:39:09.926Z,53.30
2022-11-27T15:41:40.797Z,53.30
2022-11-27T15:44:09.908Z,53.40
2022-11-27T15:46:36.370Z,53.40
2022-11-27T15:49:02.824Z,53.20
2022-11-27T15:51:29.272Z,53.40
2022-11-27T15:53:55.730Z,53.40
2022-11-27T15:56:22.213Z,53.40
2022-11-27T15:58:48.940Z,53.40
2022-11-27T16:01:15.572Z,53.40
2022-11-27T16:03:42.126Z,53.50
2022-11-27T16:06:08.611Z,53.50
2022-11-27T16:08:35.071Z,53.50
2022-11-27T16:11:02.720Z,53.50
2022-11-27T16:13:29.190Z,53.50
2022-11-27T16:15:55.769Z,53.40
2022-11-27T16:18:22.316Z,53.60
2022-11-27T16:20:48.770Z,53.50
2022-11-27T16:23:15.243Z,53.60
2022-11-27T16:25:41.726Z,53.60
2022-11-27T16:28:08.197Z,53.40
2022-11-27T16:30:34.724Z,53.50
2022-11-27T16:33:01.220Z,53.40
2022-11-27T16:35:27.697Z,53.40
2022-11-27T16:37:54.167Z,53.40
2022-11-27T16:40:20.653Z,53.40
2022-11-27T16:42:47.134Z,53.50
2022-11-27T16:45:13.593Z,53.50
2022-11-27T16:47:40.033Z,53.70
2022-11-27T16:50:06.516Z,53.40
2022-11-27T16:52:32.978Z,53.30
2022-11-27T16:54:59.438Z,53.10
2022-11-27T16:57:25.904Z,53.20
2022-11-27T16:59:52.367Z,53.00
2022-11-27T17:02:18.922Z,53.00
2022-11-27T17:04:45.435Z,52.90
2022-11-27T17:07:11.956Z,52.90
2022-11-27T17:09:38.468Z,53.00
2022-11-27T17:12:04.941Z,53.00
2022-11-27T17:14:31.407Z,52.80
2022-11-27T17:16:57.991Z,52.70
2022-11-27T17:19:24.498Z,52.80
2022-11-27T17:21:50.965Z,52.80
2022-11-27T17:24:17.432Z,52.80
2022-11-27T17:26:43.928Z,52.70
2022-11-27T17:29:10.375Z,52.80
2022-11-27T17:31:36.934Z,52.70
2022-11-27T17:34:03.454Z,52.70
2022-11-27T17:36:35.150Z,52.70
2022-11-27T17:39:03.221Z,52.60
2022-11-27T17:41:29.706Z,52.50
2022-11-27T17:43:56.152Z,52.60
2022-11-27T17:46:22.713Z,52.60
2022-11-27T17:48:49.207Z,52.50
2022-11-27T17:51:15.685Z,52.30
2022-11-27T17:53:42.148Z,52.30
2022-11-27T17:56:08.625Z,52.20
2022-11-27T17:58:35.073Z,52.40
2022-11-27T18:01:01.610Z,52.20
2022-11-27T18:03:28.087Z,52.40
2022-11-27T18:05:54.572Z,52.20
2022-11-27T18:08:21.034Z,52.30
2022-11-27T18:10:47.525Z,52.30
2022-11-27T18:13:13.973Z,52.30
2022-11-27T18:15:40.476Z,52.30
2022-11-27T18:18:06.933Z,52.30
2022-11-27T18:20:33.405Z,52.20
2022-11-27T18:22:59.866Z,52.00
2022-11-27T18:25:26.315Z,52.30
2022-11-27T18:27:52.759Z,52.20
2022-11-27T18:30:19.228Z,52.80
2022-11-27T18:32:45.700Z,52.30
2022-11-27T18:35:12.154Z,52.50
2022-11-27T18:37:38.628Z,52.40
2022-11-27T18:40:05.109Z,52.50
2022-11-27T18:42:31.573Z,52.40
2022-11-27T18:44:58.069Z,52.20
2022-11-27T18:47:24.645Z,52.20
2022-11-27T18:49:51.124Z,52.40
2022-11-27T18:52:17.608Z,52.40
2022-11-27T18:54:44.035Z,52.40
2022-11-27T18:57:10.504Z,52.20
2022-11-27T18:59:36.974Z,52.20
2022-11-27T19:02:03.607Z,52.20
2022-11-27T19:04:30.193Z,52.20
2022-11-27T19:06:56.673Z,52.10
2022-11-27T19:09:23.146Z,52.20
2022-11-27T19:11:49.612Z,52.10
2022-11-27T19:14:16.068Z,52.10
2022-11-27T19:16:42.570Z,52.10
2022-11-27T19:19:16.838Z,52.00
2022-11-27T19:21:55.471Z,51.90
2022-11-27T19:24:21.921Z,52.00
2022-11-27T19:26:48.380Z,52.00
2022-11-27T19:29:14.857Z,52.10
2022-11-27T19:31:41.373Z,52.20
2022-11-27T19:34:07.884Z,52.10
2022-11-27T19:36:34.346Z,52.10
2022-11-27T19:39:00.810Z,52.10
2022-11-27T19:41:27.304Z,52.10
2022-11-27T19:43:53.770Z,52.00
2022-11-27T19:46:20.315Z,51.80
2022-11-27T19:48:46.848Z,52.00
2022-11-27T19:51:13.321Z,52.10
2022-11-27T19:53:39.794Z,52.10
2022-11-27T19:56:06.281Z,52.10
2022-11-27T19:58:32.735Z,51.90
2022-11-27T20:00:59.277Z,52.10
2022-11-27T20:03:25.731Z,52.20
2022-11-27T20:05:56.719Z,52.00
2022-11-27T20:08:28.746Z,52.10
2022-11-27T20:10:55.228Z,52.00
2022-11-27T20:13:21.692Z,51.90
2022-11-27T20:15:48.187Z,52.00
2022-11-27T20:18:14.663Z,52.00
2022-11-27T20:20:41.152Z,52.00
2022-11-27T20:23:07.628Z,51.90
2022-11-27T20:25:34.116Z,51.90
2022-11-27T20:28:00.581Z,52.10
2022-11-27T20:30:27.048Z,52.00
2022-11-27T20:32:53.508Z,52.00
2022-11-27T20:35:19.974Z,51.90
2022-11-27T20:37:46.449Z,51.80
2022-11-27T20:40:12.897Z,52.00
2022-11-27T20:42:39.347Z,52.00
2022-11-27T20:45:05.793Z,52.10
2022-11-27T20:47:32.265Z,52.00
2022-11-27T20:49:58.742Z,52.00
2022-11-27T20:52:25.236Z,52.00
2022-11-27T20:54:51.688Z,51.90
2022-11-27T20:57:23.476Z,51.90
2022-11-27T20:59:49.944Z,51.90
2022-11-27T21:02:16.441Z,51.90
2022-11-27T21:04:42.910Z,52.00
2022-11-27T21:07:09.361Z,51.90
2022-11-27T21:09:35.826Z,51.90
2022-11-27T21:12:02.294Z,52.00
2022-11-27T21:14:28.771Z,51.90
2022-11-27T21:16:57.114Z,51.90
2022-11-27T21:19:26.700Z,52.00
2022-11-27T21:21:53.181Z,51.90
2022-11-27T21:24:19.642Z,51.90
2022-11-27T21:26:46.204Z,51.80
2022-11-27T21:29:12.716Z,51.70
2022-11-27T21:31:42.670Z,51.90
2022-11-27T21:34:11.679Z,51.80
2022-11-27T21:36:38.157Z,51.80
2022-11-27T21:39:04.623Z,51.80
2022-11-27T21:41:31.121Z,51.70
2022-11-27T21:43:57.579Z,51.90
2022-11-27T21:46:24.087Z,51.90
2022-11-27T21:48:50.573Z,51.90
2022-11-27T21:51:17.028Z,52.00
2022-11-27T21:53:43.529Z,52.10
2022-11-27T21:56:10.003Z,51.80
2022-11-27T21:58:36.472Z,51.80
2022-11-27T22:01:02.968Z,52.10
2022-11-27T22:03:29.451Z,51.90
2022-11-27T22:05:55.916Z,52.00
2022-11-27T22:08:22.367Z,52.00
2022-11-27T22:10:48.835Z,51.80
2022-11-27T22:13:15.278Z,51.90
2022-11-27T22:15:41.720Z,51.80
2022-11-27T22:18:08.191Z,51.80
2022-11-27T22:20:34.670Z,51.80
2022-11-27T22:23:01.146Z,52.00
2022-11-27T22:25:27.611Z,52.00
2022-11-27T22:27:54.082Z,52.00
2022-11-27T22:30:20.545Z,52.00
2022-11-27T22:32:47.013Z,51.80
2022-11-27T22:35:13.469Z,51.90
2022-11-27T22:37:39.948Z,52.10
2022-11-27T22:40:06.402Z,52.00
2022-11-27T22:42:32.901Z,51.90
2022-11-27T22:44:59.357Z,51.90
2022-11-27T22:47:25.852Z,52.00
2022-11-27T22:49:52.323Z,52.10
2022-11-27T22:52:18.791Z,52.10
2022-11-27T22:54:45.271Z,52.00
2022-11-27T22:57:11.750Z,52.00
2022-11-27T22:59:38.227Z,52.10
2022-11-27T23:02:04.748Z,52.20
2022-11-27T23:04:31.245Z,52.90
2022-11-27T23:06:57.712Z,52.30
2022-11-27T23:09:24.180Z,52.30
2022-11-27T23:11:50.637Z,52.30
2022-11-27T23:14:17.103Z,52.30
2022-11-27T23:16:43.679Z,52.20
2022-11-27T23:19:10.219Z,52.20
2022-11-27T23:21:36.661Z,52.30
2022-11-27T23:24:03.139Z,52.40
2022-11-27T23:26:29.595Z,52.40
2022-11-27T23:28:56.092Z,52.30
2022-11-27T23:31:31.286Z,52.30
2022-11-27T23:33:58.196Z,52.30
2022-11-27T23:36:24.661Z,52.20
2022-11-27T23:38:51.138Z,52.30
2022-11-27T23:41:17.603Z,52.40
2022-11-27T23:43:44.087Z,52.50
2022-11-27T23:46:10.626Z,53.10
2022-11-27T23:48:37.168Z,52.30
2022-11-27T23:51:03.649Z,52.40
2022-11-27T23:53:30.116Z,52.50
2022-11-27T23:55:56.573Z,52.50
2022-11-27T23:58:23.038Z,52.50
